Etusivu
METAR-TAF:

METAR-TAF

Lentoasemat :

Lontoo-Southend, Englanti

Leveyspiiri: 51-34N, Pituuspiiri: 000-42E, korkeus merenpinnasta: 15 m

Tämänhetkinen sää

Tämä raportti tehtiin 28 minuuttia sitten, kello 21.20 UTC
Tuuli 2 kn eri suunnista
Lämpötila 22°C
Kosteus 57%
Ilmanpaine 1018 hPa
Näkyvyys 10 km tai enemmän
ei pilviä alle 1500 m:ssä eikä cumulonimbus-pilviä

METAR: EGMC 072120Z VRB02KT CAVOK 22/13 Q1018

Aika: 22:48 (21:48 UTC)

Sääennuste

Tämä raportti tehtiin 1 tunti ja 53 minuuttia sitten, kello 19.55 UTC
Ennuste voimassa 07. päivästä klo 21 UTC - 08. päivään klo 06 UTC
Tuuli 7 kn kaakosta
Näkyvyys 10 km tai enemmän
ei pilviä alle 1500 m:ssä eikä cumulonimbus-pilviä

TAF: EGMC 071955Z 0721/0806 13007KT CAVOK

Säähavainnot ja -ennusteet yli 4000 lentoasemalta (METAR- ja TAF-raportit).

Käytössä olevat sääasemat on merkitty karttaan keltaisilla ja punaisilla pisteillä.

Aseta hiiri pisteen päälle nähdäksesi sääaseman nimen.

Klikkaa sitten nähdäksesi säähavainnot ja -ennusteet.

Kartan vaihtaminen: klikkaa mustalla rastilla varustettuja vihreitä pisteitä, niin voit zoomata sisään; viivalla varustettua vihreää pistettä, niin voit zoomata ulos tai vihreitä nuolia, niin pääset viereisille kartoille.


METAR-TAF: